createdAt,value
2022-09-04T00:01:15.719Z,99.90
2022-09-04T00:03:58.672Z,99.90
2022-09-04T00:06:33.695Z,99.90
2022-09-04T00:09:19.146Z,99.90
2022-09-04T00:12:08.971Z,99.90
2022-09-04T00:15:08.593Z,99.90
2022-09-04T00:17:58.892Z,99.90
2022-09-04T00:20:36.474Z,99.90
2022-09-04T00:23:35.916Z,99.90
2022-09-04T00:26:21.188Z,99.90
2022-09-04T00:28:54.039Z,99.90
2022-09-04T00:31:38.904Z,99.90
2022-09-04T00:35:06.442Z,99.90
2022-09-04T00:37:39.630Z,99.90
2022-09-04T00:40:22.244Z,99.90
2022-09-04T00:43:07.154Z,99.90
2022-09-04T00:46:20.567Z,99.90
2022-09-04T00:49:11.632Z,99.90
2022-09-04T00:51:59.742Z,99.90
2022-09-04T00:54:57.512Z,99.90
2022-09-04T00:58:04.962Z,99.90
2022-09-04T01:00:33.734Z,99.90
2022-09-04T01:03:14.996Z,99.90
2022-09-04T01:06:07.971Z,99.90
2022-09-04T01:09:14.803Z,99.90
2022-09-04T01:12:36.539Z,99.90
2022-09-04T01:15:28.531Z,99.90
2022-09-04T01:18:48.119Z,99.90
2022-09-04T01:21:56.245Z,99.90
2022-09-04T01:24:59.628Z,99.90
2022-09-04T01:27:51.714Z,99.90
2022-09-04T01:30:21.675Z,99.90
2022-09-04T01:33:08.642Z,99.90
2022-09-04T01:36:06.418Z,99.90
2022-09-04T01:38:51.180Z,99.90
2022-09-04T01:41:54.184Z,99.90
2022-09-04T01:44:21.321Z,99.90
2022-09-04T01:47:08.330Z,99.90
2022-09-04T01:49:39.368Z,99.90
2022-09-04T01:52:11.676Z,99.90
2022-09-04T01:54:53.859Z,99.90
2022-09-04T01:58:19.135Z,99.90
2022-09-04T02:01:08.541Z,99.90
2022-09-04T02:04:24.203Z,99.90
2022-09-04T02:07:03.950Z,99.90
2022-09-04T02:10:04.655Z,99.90
2022-09-04T02:12:47.947Z,99.90
2022-09-04T02:15:31.689Z,99.90
2022-09-04T02:18:36.226Z,99.90
2022-09-04T02:21:31.994Z,99.90
2022-09-04T02:24:23.419Z,99.90
2022-09-04T02:27:15.743Z,99.90
2022-09-04T02:30:13.734Z,99.90
2022-09-04T02:33:22.928Z,99.90
2022-09-04T02:36:07.765Z,99.90
2022-09-04T02:38:51.254Z,99.90
2022-09-04T02:42:04.139Z,99.90
2022-09-04T02:44:49.187Z,99.90
2022-09-04T02:47:59.387Z,99.90
2022-09-04T02:50:56.387Z,99.90
2022-09-04T02:53:39.087Z,99.90
2022-09-04T02:56:25.699Z,99.90
2022-09-04T02:59:28.998Z,99.90
2022-09-04T03:02:03.342Z,99.90
2022-09-04T03:05:11.661Z,99.90
2022-09-04T03:07:48.909Z,99.90
2022-09-04T03:10:19.847Z,99.90
2022-09-04T03:13:09.933Z,99.90
2022-09-04T03:16:13.029Z,99.90
2022-09-04T03:19:08.592Z,99.90
2022-09-04T03:21:53.198Z,99.90
2022-09-04T03:24:42.411Z,99.90
2022-09-04T03:27:14.335Z,99.90
2022-09-04T03:29:47.125Z,99.90
2022-09-04T03:32:52.106Z,99.90
2022-09-04T03:35:58.481Z,99.90
2022-09-04T03:38:43.745Z,99.90
2022-09-04T03:41:30.353Z,99.90
2022-09-04T03:44:27.823Z,99.90
2022-09-04T03:47:29.772Z,99.90
2022-09-04T03:50:30.925Z,99.90
2022-09-04T03:53:20.014Z,99.90
2022-09-04T03:56:06.999Z,99.90
2022-09-04T03:59:00.514Z,99.90
2022-09-04T04:01:45.642Z,99.90
2022-09-04T04:04:52.625Z,99.90
2022-09-04T04:07:37.773Z,99.90
2022-09-04T04:10:31.230Z,99.90
2022-09-04T04:13:50.927Z,99.90
2022-09-04T04:16:40.710Z,99.90
2022-09-04T04:19:49.559Z,99.90
2022-09-04T04:22:33.514Z,99.90
2022-09-04T04:25:36.742Z,99.90
2022-09-04T04:28:37.792Z,99.90
2022-09-04T04:31:37.637Z,99.90
2022-09-04T04:34:28.531Z,99.90
2022-09-04T04:37:13.617Z,99.90
2022-09-04T04:39:55.885Z,99.90
2022-09-04T04:42:40.023Z,99.90
2022-09-04T04:45:52.773Z,99.90
2022-09-04T04:49:04.479Z,99.90
2022-09-04T04:52:04.499Z,99.90
2022-09-04T04:54:53.153Z,99.90
2022-09-04T04:57:35.515Z,99.90
2022-09-04T05:00:43.081Z,99.90
2022-09-04T05:03:48.371Z,99.90
2022-09-04T05:06:29.180Z,99.90
2022-09-04T05:09:23.103Z,99.90
2022-09-04T05:12:18.272Z,99.90
2022-09-04T05:15:20.138Z,99.90
2022-09-04T05:18:12.192Z,99.90
2022-09-04T05:21:06.893Z,99.90
2022-09-04T05:23:49.079Z,99.90
2022-09-04T05:26:49.476Z,99.90
2022-09-04T05:29:44.611Z,99.90
2022-09-04T05:32:28.767Z,99.90
2022-09-04T05:36:01.274Z,99.90
2022-09-04T05:38:57.519Z,99.90
2022-09-04T05:41:50.158Z,99.90
2022-09-04T05:44:54.620Z,99.90
2022-09-04T05:47:30.439Z,99.90
2022-09-04T05:50:16.863Z,99.90
2022-09-04T05:52:53.177Z,99.90
2022-09-04T05:56:01.995Z,99.90
2022-09-04T05:59:06.940Z,99.90
2022-09-04T06:02:31.064Z,99.90
2022-09-04T06:05:52.490Z,99.90
2022-09-04T06:08:43.815Z,99.90
2022-09-04T06:11:32.500Z,99.90
2022-09-04T06:14:58.824Z,99.90
2022-09-04T06:17:44.062Z,99.90
2022-09-04T06:20:55.664Z,99.90
2022-09-04T06:23:49.918Z,99.90
2022-09-04T06:26:52.751Z,99.90
2022-09-04T06:29:47.526Z,99.90
2022-09-04T06:32:49.102Z,99.90
2022-09-04T06:36:01.048Z,99.90
2022-09-04T06:38:41.251Z,99.90
2022-09-04T06:41:54.994Z,99.90
2022-09-04T06:45:23.805Z,99.90
2022-09-04T06:48:34.329Z,99.90
2022-09-04T06:51:19.750Z,99.90
2022-09-04T06:54:10.516Z,99.90
2022-09-04T06:57:22.663Z,99.90
2022-09-04T07:00:02.392Z,99.90
2022-09-04T07:02:38.592Z,99.90
2022-09-04T07:05:22.666Z,99.90
2022-09-04T07:08:26.381Z,99.90
2022-09-04T07:11:18.162Z,99.90
2022-09-04T07:14:17.126Z,99.90
2022-09-04T07:17:05.205Z,99.90
2022-09-04T07:20:07.433Z,99.90
2022-09-04T07:23:00.717Z,99.90
2022-09-04T07:25:39.717Z,99.90
2022-09-04T07:28:36.975Z,99.90
2022-09-04T07:32:06.125Z,99.90
2022-09-04T07:34:41.291Z,99.90
2022-09-04T07:37:25.132Z,99.90
2022-09-04T07:40:22.037Z,99.90
2022-09-04T07:42:52.413Z,99.90
2022-09-04T07:45:40.108Z,99.90
2022-09-04T07:48:34.950Z,99.90
2022-09-04T07:51:13.414Z,99.90
2022-09-04T07:54:01.849Z,99.90
2022-09-04T07:56:56.967Z,99.90
2022-09-04T07:59:39.567Z,99.90
2022-09-04T08:02:21.563Z,99.90
2022-09-04T08:05:41.183Z,99.90
2022-09-04T08:08:46.518Z,99.90
2022-09-04T08:12:01.459Z,99.90
2022-09-04T08:14:53.514Z,99.90
2022-09-04T08:18:05.742Z,99.90
2022-09-04T08:21:23.687Z,99.90
2022-09-04T08:24:14.883Z,99.90
2022-09-04T08:27:06.791Z,99.90
2022-09-04T08:30:04.631Z,99.90
2022-09-04T08:33:24.032Z,99.90
2022-09-04T08:36:43.975Z,99.90
2022-09-04T08:39:38.831Z,99.90
2022-09-04T08:43:07.196Z,99.90
2022-09-04T08:45:42.431Z,99.90
2022-09-04T08:49:09.494Z,99.90
2022-09-04T08:52:19.587Z,99.90
2022-09-04T08:55:05.846Z,99.90
2022-09-04T08:58:28.583Z,99.90
2022-09-04T09:01:45.408Z,99.90
2022-09-04T09:05:05.583Z,99.90
2022-09-04T09:07:58.551Z,99.90
2022-09-04T09:10:38.337Z,99.90
2022-09-04T09:13:26.393Z,99.90
2022-09-04T09:16:25.301Z,99.90
2022-09-04T09:19:33.915Z,99.90
2022-09-04T09:22:38.748Z,99.90
2022-09-04T09:25:55.830Z,99.90
2022-09-04T09:28:47.608Z,99.90
2022-09-04T09:31:38.387Z,99.90
2022-09-04T09:34:24.040Z,99.90
2022-09-04T09:37:32.983Z,99.90
2022-09-04T09:40:37.399Z,99.90
2022-09-04T09:43:50.190Z,99.90
2022-09-04T09:47:07.327Z,99.90
2022-09-04T09:49:52.315Z,99.90
2022-09-04T09:52:55.938Z,99.90
2022-09-04T09:55:53.021Z,99.90
2022-09-04T09:59:15.956Z,99.90
2022-09-04T10:01:48.753Z,99.90
2022-09-04T10:04:51.541Z,99.90
2022-09-04T10:07:37.455Z,99.90
2022-09-04T10:10:48.263Z,99.90
2022-09-04T10:13:37.163Z,99.90
2022-09-04T10:16:36.098Z,99.90
2022-09-04T10:19:51.623Z,99.90
2022-09-04T10:23:06.531Z,99.90
2022-09-04T10:25:55.100Z,99.90
2022-09-04T10:28:49.748Z,99.90
2022-09-04T10:31:57.527Z,99.90
2022-09-04T10:35:00.833Z,99.90
2022-09-04T10:38:08.004Z,99.90
2022-09-04T10:41:29.329Z,99.90
2022-09-04T10:44:26.799Z,99.90
2022-09-04T10:47:25.211Z,99.90
2022-09-04T10:50:04.456Z,99.90
2022-09-04T10:52:43.272Z,99.90
2022-09-04T10:55:19.135Z,99.90
2022-09-04T10:58:24.755Z,99.90
2022-09-04T11:01:36.789Z,99.90
2022-09-04T11:05:07.163Z,99.90
2022-09-04T11:08:36.995Z,99.90
2022-09-04T11:11:11.684Z,99.90
2022-09-04T11:14:06.731Z,99.90
2022-09-04T11:17:28.616Z,99.90
2022-09-04T11:20:25.891Z,99.90
2022-09-04T11:23:23.486Z,99.90
2022-09-04T11:26:12.303Z,99.90
2022-09-04T11:28:51.375Z,99.90
2022-09-04T11:31:48.507Z,99.90
2022-09-04T11:34:40.747Z,99.90
2022-09-04T11:37:57.705Z,99.90
2022-09-04T11:41:04.881Z,99.90
2022-09-04T11:44:06.016Z,99.90
2022-09-04T11:47:04.230Z,99.90
2022-09-04T11:50:17.393Z,99.90
2022-09-04T11:52:56.793Z,99.90
2022-09-04T11:56:09.845Z,99.90
2022-09-04T11:59:10.559Z,99.90
2022-09-04T12:02:23.222Z,99.90
2022-09-04T12:05:14.748Z,99.90
2022-09-04T12:08:08.948Z,99.90
2022-09-04T12:10:52.611Z,99.90
2022-09-04T12:13:28.664Z,99.90
2022-09-04T12:16:49.822Z,99.90
2022-09-04T12:19:51.213Z,99.90
2022-09-04T12:22:45.901Z,99.90
2022-09-04T12:25:18.896Z,99.90
2022-09-04T12:28:18.507Z,99.90
2022-09-04T12:31:13.133Z,99.90
2022-09-04T12:34:11.649Z,99.90
2022-09-04T12:37:21.393Z,99.90
2022-09-04T12:40:29.640Z,98.40
2022-09-04T12:43:16.564Z,97.80
2022-09-04T12:46:06.968Z,94.50
2022-09-04T12:48:37.049Z,96.80
2022-09-04T12:51:21.413Z,97.70
2022-09-04T12:54:05.267Z,97.80
2022-09-04T12:56:49.182Z,98.10
2022-09-04T12:59:26.795Z,96.60
2022-09-04T13:02:30.280Z,94.40
2022-09-04T13:05:54.791Z,94.30
2022-09-04T13:08:58.120Z,94.60
2022-09-04T13:12:20.515Z,95.30
2022-09-04T13:15:14.387Z,96.40
2022-09-04T13:18:18.712Z,93.90
2022-09-04T13:20:58.274Z,94.40
2022-09-04T13:23:35.697Z,95.30
2022-09-04T13:27:04.899Z,94.70
2022-09-04T13:30:03.600Z,94.30
2022-09-04T13:33:04.695Z,95.10
2022-09-04T13:35:55.375Z,93.60
2022-09-04T13:39:10.808Z,92.80
2022-09-04T13:42:20.203Z,92.40
2022-09-04T13:45:11.790Z,92.30
2022-09-04T13:47:52.383Z,93.40
2022-09-04T13:50:43.296Z,92.70
2022-09-04T13:53:16.676Z,93.40
2022-09-04T13:55:54.763Z,94.70
2022-09-04T13:58:32.191Z,93.70
2022-09-04T14:01:07.459Z,92.80
2022-09-04T14:03:57.469Z,93.00
2022-09-04T14:06:27.383Z,92.60
2022-09-04T14:09:04.758Z,93.20
2022-09-04T14:12:05.451Z,93.50
2022-09-04T14:14:44.442Z,92.70
2022-09-04T14:17:12.691Z,92.90
2022-09-04T14:19:55.447Z,92.10
2022-09-04T14:22:48.695Z,91.20
2022-09-04T14:25:30.951Z,91.80
2022-09-04T14:28:32.060Z,92.10
2022-09-04T14:31:17.902Z,91.90
2022-09-04T14:34:38.932Z,92.30
2022-09-04T14:37:23.391Z,92.90
2022-09-04T14:40:03.830Z,93.40
2022-09-04T14:43:12.495Z,93.00
2022-09-04T14:46:07.400Z,93.60
2022-09-04T14:48:44.630Z,92.20
2022-09-04T14:51:35.174Z,91.70
2022-09-04T14:54:03.512Z,92.70
2022-09-04T14:56:51.308Z,92.90
2022-09-04T14:59:41.372Z,94.50
2022-09-04T15:02:11.539Z,93.50
2022-09-04T15:04:54.205Z,93.40
2022-09-04T15:07:44.635Z,94.00
2022-09-04T15:10:35.332Z,92.90
2022-09-04T15:13:21.282Z,92.90
2022-09-04T15:16:12.720Z,92.50
2022-09-04T15:18:40.811Z,92.30
2022-09-04T15:21:33.370Z,93.20
2022-09-04T15:24:26.474Z,93.10
2022-09-04T15:27:37.552Z,93.30
2022-09-04T15:30:07.090Z,92.40
2022-09-04T15:32:42.659Z,93.30
2022-09-04T15:35:34.037Z,92.30
2022-09-04T15:38:22.100Z,91.40
2022-09-04T15:41:15.620Z,91.50
2022-09-04T15:43:55.886Z,92.80
2022-09-04T15:46:35.620Z,91.90
2022-09-04T15:49:38.294Z,91.00
2022-09-04T15:52:26.562Z,91.80
2022-09-04T15:55:30.153Z,91.70
2022-09-04T15:58:30.271Z,91.80
2022-09-04T16:01:06.458Z,91.40
2022-09-04T16:03:53.175Z,91.70
2022-09-04T16:06:42.566Z,91.60
2022-09-04T16:09:33.818Z,92.50
2022-09-04T16:12:21.747Z,91.80
2022-09-04T16:14:57.743Z,92.40
2022-09-04T16:17:44.507Z,92.20
2022-09-04T16:20:34.368Z,91.90
2022-09-04T16:23:09.116Z,93.20
2022-09-04T16:25:50.931Z,92.20
2022-09-04T16:28:40.976Z,92.00
2022-09-04T16:31:14.875Z,92.30
2022-09-04T16:33:45.844Z,94.10
2022-09-04T16:36:40.324Z,94.60
2022-09-04T16:39:58.436Z,95.00
2022-09-04T16:42:47.983Z,96.30
2022-09-04T16:45:27.136Z,96.30
2022-09-04T16:48:33.896Z,96.70
2022-09-04T16:51:50.572Z,97.30
2022-09-04T16:54:32.713Z,96.10
2022-09-04T16:57:15.539Z,97.60
2022-09-04T16:59:55.843Z,99.00
2022-09-04T17:02:52.818Z,99.80
2022-09-04T17:05:53.736Z,99.90
2022-09-04T17:08:31.869Z,99.90
2022-09-04T17:11:55.578Z,99.90
2022-09-04T17:14:35.942Z,99.90
2022-09-04T17:17:30.524Z,99.90
2022-09-04T17:20:21.022Z,99.90
2022-09-04T17:28:59.981Z,99.90
2022-09-04T17:29:07.711Z,99.90
2022-09-04T17:29:38.208Z,99.90
2022-09-04T17:33:46.116Z,99.90
2022-09-04T17:40:38.801Z,99.90
2022-09-04T17:40:46.601Z,99.90
2022-09-04T17:42:27.341Z,99.90
2022-09-04T17:45:20.083Z,99.90
2022-09-04T17:47:47.252Z,99.90
2022-09-04T17:50:20.271Z,99.90
2022-09-04T17:53:10.400Z,99.90
2022-09-04T17:55:57.565Z,99.90
2022-09-04T17:58:54.718Z,99.90
2022-09-04T18:01:43.982Z,99.90
2022-09-04T18:04:27.047Z,99.90
2022-09-04T18:08:09.127Z,99.90
2022-09-04T18:10:28.467Z,99.90
2022-09-04T18:13:36.975Z,99.90
2022-09-04T18:16:23.485Z,99.90
2022-09-04T18:18:59.099Z,99.90
2022-09-04T18:21:36.205Z,99.90
2022-09-04T18:24:16.351Z,99.90
2022-09-04T18:26:55.271Z,99.90
2022-09-04T18:30:13.869Z,99.90
2022-09-04T18:37:23.609Z,99.90
2022-09-04T18:37:24.433Z,99.90
2022-09-04T18:38:44.222Z,99.90
2022-09-04T18:46:35.358Z,99.90
2022-09-04T18:50:35.289Z,99.90
2022-09-04T18:50:53.387Z,99.90
2022-09-04T18:51:14.628Z,99.90
2022-09-04T18:54:12.397Z,99.90
2022-09-04T18:56:47.928Z,99.90
2022-09-04T18:59:19.707Z,99.90
2022-09-04T19:02:26.350Z,99.90
2022-09-04T19:05:08.718Z,99.90
2022-09-04T19:07:53.963Z,99.90
2022-09-04T19:10:37.304Z,99.90
2022-09-04T19:13:36.337Z,99.90
2022-09-04T19:16:20.307Z,99.90
2022-09-04T19:19:04.775Z,99.90
2022-09-04T19:21:57.867Z,99.90
2022-09-04T19:24:57.456Z,99.90
2022-09-04T19:27:47.030Z,99.90
2022-09-04T19:30:26.882Z,99.90
2022-09-04T19:33:13.416Z,99.90
2022-09-04T19:36:17.062Z,99.90
2022-09-04T19:46:01.809Z,99.90
2022-09-04T19:46:06.481Z,99.90
2022-09-04T19:46:16.657Z,99.90
2022-09-04T19:49:11.117Z,99.90
2022-09-04T19:53:34.344Z,99.90
2022-09-04T19:54:57.813Z,99.90
2022-09-04T19:57:45.405Z,99.90
2022-09-04T20:00:42.396Z,99.90
2022-09-04T20:03:30.352Z,99.90
2022-09-04T20:06:35.542Z,99.90
2022-09-04T20:09:40.637Z,99.90
2022-09-04T20:12:20.938Z,99.90
2022-09-04T20:15:12.196Z,99.90
2022-09-04T20:18:14.478Z,99.90
2022-09-04T20:20:58.967Z,99.90
2022-09-04T20:23:36.611Z,99.90
2022-09-04T20:26:18.039Z,99.90
2022-09-04T20:28:59.074Z,99.90
2022-09-04T20:31:45.242Z,99.90
2022-09-04T20:34:26.937Z,99.90
2022-09-04T20:37:23.183Z,99.90
2022-09-04T20:40:15.244Z,99.90
2022-09-04T20:43:12.020Z,99.90
2022-09-04T20:51:49.839Z,99.90
2022-09-04T20:52:52.041Z,99.90
2022-09-04T20:52:53.513Z,99.90
2022-09-04T20:55:55.998Z,99.90
2022-09-04T21:03:08.058Z,99.90
2022-09-04T21:03:23.359Z,99.90
2022-09-04T21:05:37.720Z,99.90
2022-09-04T21:08:19.923Z,99.90
2022-09-04T21:10:49.842Z,99.90
2022-09-04T21:13:46.321Z,99.90
2022-09-04T21:16:41.378Z,99.90
2022-09-04T21:19:29.109Z,99.90
2022-09-04T21:22:32.946Z,99.90
2022-09-04T21:25:27.979Z,99.90
2022-09-04T21:28:48.869Z,99.90
2022-09-04T21:31:43.947Z,99.90
2022-09-04T21:35:05.545Z,99.90
2022-09-04T21:38:30.817Z,99.90
2022-09-04T21:41:28.376Z,99.90
2022-09-04T21:44:10.266Z,99.90
2022-09-04T21:47:20.550Z,99.90
2022-09-04T21:49:56.767Z,99.90
2022-09-04T21:52:50.357Z,99.90
2022-09-04T21:57:41.398Z,99.90
2022-09-04T22:02:35.691Z,99.90
2022-09-04T22:02:35.904Z,99.90
2022-09-04T22:05:31.485Z,99.90
2022-09-04T22:13:26.558Z,99.90
2022-09-04T22:13:38.745Z,99.90
2022-09-04T22:14:25.566Z,99.90
2022-09-04T22:17:16.723Z,99.90
2022-09-04T22:20:16.988Z,99.90
2022-09-04T22:23:04.786Z,99.90
2022-09-04T22:25:50.474Z,99.90
2022-09-04T22:29:44.556Z,99.90
2022-09-04T22:32:20.670Z,99.90
2022-09-04T22:35:15.555Z,99.90
2022-09-04T22:38:04.143Z,99.90
2022-09-04T22:40:57.122Z,99.90
2022-09-04T22:43:26.398Z,99.90
2022-09-04T22:46:30.796Z,99.90
2022-09-04T22:49:31.762Z,99.90
2022-09-04T22:52:37.944Z,99.90
2022-09-04T22:55:39.595Z,99.90
2022-09-04T22:58:42.392Z,99.90
2022-09-04T23:01:36.803Z,99.90
2022-09-04T23:04:41.395Z,99.90
2022-09-04T23:12:36.225Z,99.90
2022-09-04T23:13:58.480Z,99.90
2022-09-04T23:14:52.599Z,99.90
2022-09-04T23:17:32.850Z,99.90
2022-09-04T23:26:12.408Z,99.90
2022-09-04T23:26:42.531Z,99.90
2022-09-04T23:27:00.729Z,99.90
2022-09-04T23:29:53.928Z,99.90
2022-09-04T23:32:46.314Z,99.90
2022-09-04T23:35:26.900Z,99.90
2022-09-04T23:38:24.353Z,99.90
2022-09-04T23:41:18.895Z,99.90
2022-09-04T23:44:32.718Z,99.90
2022-09-04T23:47:47.073Z,99.90
2022-09-04T23:50:13.498Z,99.90
2022-09-04T23:53:07.816Z,99.90
2022-09-04T23:55:56.599Z,99.90
2022-09-04T23:59:09.944Z,99.90
